createdAt,value
2018-05-18T00:01:06.549Z,99.90
2018-05-18T00:03:36.016Z,99.90
2018-05-18T00:06:05.595Z,99.90
2018-05-18T00:08:38.025Z,99.90
2018-05-18T00:11:07.356Z,99.90
2018-05-18T00:13:36.463Z,99.90
2018-05-18T00:16:06.648Z,99.90
2018-05-18T00:18:35.957Z,99.90
2018-05-18T00:21:08.193Z,99.90
2018-05-18T00:23:38.120Z,99.90
2018-05-18T00:26:07.562Z,99.90
2018-05-18T00:28:36.968Z,99.90
2018-05-18T00:31:07.144Z,99.90
2018-05-18T00:33:36.323Z,99.90
2018-05-18T00:36:05.536Z,99.90
2018-05-18T00:38:34.583Z,99.90
2018-05-18T00:41:03.763Z,99.90
2018-05-18T00:43:32.998Z,99.90
2018-05-18T00:46:02.877Z,99.90
2018-05-18T00:48:33.584Z,99.90
2018-05-18T00:51:07.380Z,99.90
2018-05-18T00:53:38.496Z,99.90
2018-05-18T00:56:07.758Z,99.90
2018-05-18T00:58:37.873Z,99.90
2018-05-18T01:01:07.034Z,99.90
2018-05-18T01:03:40.018Z,99.90
2018-05-18T01:06:09.241Z,99.90
2018-05-18T01:08:38.667Z,99.90
2018-05-18T01:11:07.918Z,99.90
2018-05-18T01:13:37.231Z,99.90
2018-05-18T01:16:07.120Z,99.90
2018-05-18T01:18:36.415Z,99.90
2018-05-18T01:21:05.520Z,99.90
2018-05-18T01:23:34.733Z,99.90
2018-05-18T01:26:04.739Z,99.90
2018-05-18T01:28:33.838Z,99.90
2018-05-18T01:31:03.009Z,99.90
2018-05-18T01:33:32.146Z,99.90
2018-05-18T01:36:02.238Z,99.90
2018-05-18T01:38:31.451Z,99.90
2018-05-18T01:41:00.638Z,99.90
2018-05-18T01:43:29.966Z,99.90
2018-05-18T01:45:59.876Z,99.90
2018-05-18T01:48:31.166Z,99.90
2018-05-18T01:51:01.484Z,99.90
2018-05-18T01:53:30.675Z,99.90
2018-05-18T01:55:59.992Z,99.90
2018-05-18T01:58:29.259Z,99.90
2018-05-18T02:00:59.311Z,99.90
2018-05-18T02:03:29.097Z,99.90
2018-05-18T02:05:58.271Z,99.90
2018-05-18T02:08:28.910Z,99.90
2018-05-18T02:10:58.126Z,99.90
2018-05-18T02:13:27.470Z,99.90
2018-05-18T02:15:56.692Z,99.90
2018-05-18T02:18:27.348Z,99.90
2018-05-18T02:20:56.973Z,99.90
2018-05-18T02:23:35.650Z,99.90
2018-05-18T02:26:04.783Z,99.90
2018-05-18T02:28:34.221Z,99.90
2018-05-18T02:31:03.386Z,99.90
2018-05-18T02:33:33.453Z,99.90
2018-05-18T02:36:02.781Z,99.90
2018-05-18T02:38:31.993Z,99.90
2018-05-18T02:41:01.287Z,99.90
2018-05-18T02:43:30.490Z,99.90
2018-05-18T02:46:01.972Z,99.90
2018-05-18T02:48:31.373Z,99.90
2018-05-18T02:51:00.680Z,99.90
2018-05-18T02:53:29.776Z,99.90
2018-05-18T02:55:58.969Z,99.90
2018-05-18T02:58:28.728Z,99.90
2018-05-18T03:01:00.329Z,99.90
2018-05-18T03:03:29.726Z,99.90
2018-05-18T03:05:59.058Z,99.90
2018-05-18T03:11:02.894Z,99.90
2018-05-18T03:13:32.715Z,99.90
2018-05-18T03:16:02.881Z,99.90
2018-05-18T03:18:33.022Z,99.90
2018-05-18T03:21:04.033Z,99.90
2018-05-18T03:23:37.706Z,99.90
2018-05-18T03:26:08.622Z,99.90
2018-05-18T03:28:42.072Z,99.90
2018-05-18T03:34:00.355Z,99.90
2018-05-18T03:36:37.404Z,99.90
2018-05-18T03:39:20.783Z,99.90
2018-05-18T03:55:18.876Z,99.90
2018-05-18T03:57:51.859Z,99.90
2018-05-18T04:03:22.051Z,99.90
2018-05-18T04:12:08.395Z,99.90
2018-05-18T04:23:32.293Z,99.90
2018-05-18T04:26:15.328Z,99.90
2018-05-18T04:28:46.721Z,99.90
2018-05-18T04:41:35.818Z,99.90
2018-05-18T04:44:13.243Z,99.90
2018-05-18T04:53:46.797Z,99.90
2018-05-18T04:56:16.054Z,99.90
2018-05-18T04:58:46.071Z,99.90
2018-05-18T05:01:15.119Z,99.90
2018-05-18T05:03:44.382Z,99.90
2018-05-18T05:06:13.452Z,99.90
2018-05-18T05:08:42.601Z,99.90
2018-05-18T05:11:12.585Z,99.90
2018-05-18T05:13:42.557Z,99.90
2018-05-18T05:16:11.692Z,99.90
2018-05-18T05:18:41.571Z,99.90
2018-05-18T05:21:10.598Z,99.90
2018-05-18T05:23:40.552Z,99.90
2018-05-18T05:26:09.671Z,99.90
2018-05-18T05:28:38.843Z,99.90
2018-05-18T05:31:07.987Z,99.90
2018-05-18T05:33:37.060Z,99.90
2018-05-18T05:36:06.210Z,99.90
2018-05-18T05:38:35.284Z,99.90
2018-05-18T05:41:05.160Z,99.90
2018-05-18T05:43:34.189Z,99.90
2018-05-18T05:46:03.372Z,99.90
2018-05-18T05:48:32.408Z,99.90
2018-05-18T05:51:01.559Z,99.90
2018-05-18T05:53:31.374Z,99.90
2018-05-18T05:56:00.962Z,99.90
2018-05-18T05:58:30.125Z,99.90
2018-05-18T06:01:00.164Z,99.90
2018-05-18T06:03:29.378Z,99.90
2018-05-18T06:05:58.449Z,99.90
2018-05-18T06:08:28.935Z,99.90
2018-05-18T06:10:58.001Z,99.90
2018-05-18T06:13:27.154Z,99.90
2018-05-18T06:15:56.819Z,99.90
2018-05-18T06:18:25.869Z,99.90
2018-05-18T06:20:54.925Z,99.90
2018-05-18T06:23:24.100Z,99.90
2018-05-18T06:25:53.136Z,99.90
2018-05-18T06:28:22.221Z,99.90
2018-05-18T06:30:51.376Z,99.90
2018-05-18T06:33:20.479Z,99.90
2018-05-18T06:35:49.535Z,99.90
2018-05-18T06:38:18.618Z,99.90
2018-05-18T06:40:47.705Z,99.90
2018-05-18T06:43:16.778Z,99.90
2018-05-18T06:45:45.843Z,99.90
2018-05-18T06:48:15.011Z,99.90
2018-05-18T06:50:44.099Z,99.90
2018-05-18T06:53:13.213Z,99.90
2018-05-18T06:55:43.008Z,99.90
2018-05-18T06:58:12.373Z,99.90
2018-05-18T07:00:41.452Z,99.90
2018-05-18T07:03:10.568Z,99.90
2018-05-18T07:05:40.348Z,99.90
2018-05-18T07:08:09.453Z,99.90
2018-05-18T07:10:38.589Z,99.90
2018-05-18T07:13:07.674Z,99.90
2018-05-18T07:15:36.837Z,99.90
2018-05-18T07:18:06.103Z,99.90
2018-05-18T07:20:35.951Z,99.90
2018-05-18T07:23:05.196Z,99.90
2018-05-18T07:25:34.558Z,99.90
2018-05-18T07:28:04.432Z,99.90
2018-05-18T07:30:33.445Z,99.90
2018-05-18T07:33:02.559Z,99.90
2018-05-18T07:35:31.720Z,99.90
2018-05-18T07:38:00.879Z,99.90
2018-05-18T07:40:30.027Z,99.90
2018-05-18T07:42:59.134Z,99.90
2018-05-18T07:45:28.300Z,99.90
2018-05-18T07:47:57.391Z,99.90
2018-05-18T07:50:26.594Z,99.90
2018-05-18T07:52:55.720Z,99.90
2018-05-18T07:55:24.914Z,99.90
2018-05-18T07:57:54.082Z,99.90
2018-05-18T08:00:24.353Z,99.90
2018-05-18T08:02:53.653Z,99.90
2018-05-18T08:05:22.800Z,99.90
2018-05-18T08:07:52.673Z,99.90
2018-05-18T08:10:21.892Z,99.90
2018-05-18T08:15:25.612Z,99.90
2018-05-18T08:17:56.172Z,99.90
2018-05-18T08:20:27.390Z,99.90
2018-05-18T08:22:56.711Z,99.90
2018-05-18T08:25:26.720Z,99.90
2018-05-18T08:27:57.134Z,99.90
2018-05-18T08:30:27.331Z,99.90
2018-05-18T08:32:58.309Z,99.90
2018-05-18T08:35:42.578Z,99.90
2018-05-18T08:38:13.092Z,99.90
2018-05-18T08:41:01.474Z,99.90
2018-05-18T08:43:39.432Z,99.90
2018-05-18T08:51:24.313Z,99.90
2018-05-18T08:56:46.333Z,99.90
2018-05-18T08:59:17.589Z,99.90
2018-05-18T09:01:55.913Z,99.90
2018-05-18T09:04:31.920Z,99.90
2018-05-18T09:09:43.761Z,99.90
2018-05-18T09:17:24.249Z,99.90
2018-05-18T09:19:56.158Z,99.90
2018-05-18T09:22:27.991Z,99.90
2018-05-18T09:24:57.357Z,99.90
2018-05-18T09:27:33.785Z,99.90
2018-05-18T09:30:04.444Z,99.90
2018-05-18T09:32:36.483Z,99.90
2018-05-18T09:35:06.031Z,99.90
2018-05-18T09:37:36.518Z,99.90
2018-05-18T09:40:07.799Z,99.90
2018-05-18T09:42:42.205Z,99.90
2018-05-18T09:45:16.615Z,99.90
2018-05-18T09:47:46.935Z,99.90
2018-05-18T09:50:20.657Z,99.90
2018-05-18T09:52:51.307Z,99.90
2018-05-18T09:55:21.016Z,99.90
2018-05-18T09:57:50.845Z,99.90
2018-05-18T10:00:20.289Z,99.90
2018-05-18T10:02:52.152Z,99.90
2018-05-18T10:05:23.653Z,99.90
2018-05-18T10:07:54.154Z,99.90
2018-05-18T10:10:24.529Z,99.90
2018-05-18T10:12:55.089Z,99.90
2018-05-18T10:15:26.369Z,99.90
2018-05-18T10:17:57.165Z,99.90
2018-05-18T10:20:27.177Z,99.90
2018-05-18T10:22:57.121Z,99.90
2018-05-18T10:25:29.117Z,99.90
2018-05-18T10:28:00.333Z,99.90
2018-05-18T10:30:36.632Z,99.90
2018-05-18T10:33:09.487Z,99.90
2018-05-18T10:35:43.232Z,99.90
2018-05-18T10:38:16.480Z,99.90
2018-05-18T10:40:46.171Z,99.90
2018-05-18T10:43:48.156Z,99.90
2018-05-18T10:46:19.599Z,99.90
2018-05-18T10:48:49.648Z,99.90
2018-05-18T10:51:26.932Z,99.90
2018-05-18T10:53:57.434Z,99.90
2018-05-18T10:56:27.698Z,99.90
2018-05-18T10:59:02.423Z,99.90
2018-05-18T11:01:32.374Z,99.90
2018-05-18T11:04:06.008Z,99.90
2018-05-18T11:06:36.297Z,99.90
2018-05-18T11:09:07.999Z,99.90
2018-05-18T11:11:42.937Z,99.90
2018-05-18T11:14:14.521Z,99.90
2018-05-18T11:16:52.042Z,99.90
2018-05-18T11:19:21.453Z,99.90
2018-05-18T11:21:50.691Z,99.90
2018-05-18T11:24:20.518Z,99.90
2018-05-18T11:26:49.639Z,99.90
2018-05-18T11:29:18.972Z,99.90
2018-05-18T11:31:49.175Z,99.90
2018-05-18T11:34:19.262Z,99.90
2018-05-18T11:36:48.322Z,99.90
2018-05-18T11:39:17.993Z,99.90
2018-05-18T11:41:47.353Z,99.90
2018-05-18T11:44:17.339Z,99.90
2018-05-18T11:46:46.685Z,99.90
2018-05-18T11:49:15.830Z,99.90
2018-05-18T11:51:46.289Z,99.90
2018-05-18T11:54:18.976Z,99.90
2018-05-18T11:56:49.299Z,99.90
2018-05-18T11:59:25.378Z,99.90
2018-05-18T12:01:55.461Z,99.90
2018-05-18T12:04:28.830Z,99.90
2018-05-18T12:06:58.997Z,99.90
2018-05-18T12:09:28.140Z,99.90
2018-05-18T12:11:58.196Z,99.90
2018-05-18T12:14:28.376Z,99.90
2018-05-18T12:17:00.943Z,99.90
2018-05-18T12:19:30.193Z,99.90
2018-05-18T12:22:01.517Z,99.90
2018-05-18T12:24:31.642Z,99.90
2018-05-18T12:27:02.631Z,99.90
2018-05-18T12:29:35.219Z,99.90
2018-05-18T12:32:04.333Z,99.90
2018-05-18T12:34:35.728Z,99.90
2018-05-18T12:37:06.441Z,99.90
2018-05-18T12:39:36.301Z,99.90
2018-05-18T12:42:07.642Z,99.90
2018-05-18T12:44:39.032Z,99.90
2018-05-18T12:47:09.321Z,99.90
2018-05-18T12:49:41.390Z,99.90
2018-05-18T12:52:10.767Z,99.90
2018-05-18T12:54:41.048Z,99.90
2018-05-18T12:57:11.951Z,99.90
2018-05-18T12:59:42.052Z,99.90
2018-05-18T13:02:11.289Z,99.90
2018-05-18T13:04:44.442Z,99.90
2018-05-18T13:07:15.187Z,99.90
2018-05-18T13:09:44.451Z,99.90
2018-05-18T13:12:13.740Z,99.90
2018-05-18T13:14:43.144Z,99.90
2018-05-18T13:17:13.671Z,99.90
2018-05-18T13:19:42.731Z,99.90
2018-05-18T13:22:12.921Z,99.90
2018-05-18T13:24:45.537Z,99.90
2018-05-18T13:27:16.353Z,99.90
2018-05-18T13:29:45.696Z,99.90
2018-05-18T13:32:16.316Z,99.90
2018-05-18T13:34:45.643Z,99.90
2018-05-18T13:37:14.809Z,99.90
2018-05-18T13:39:44.843Z,99.90
2018-05-18T13:42:15.359Z,99.90
2018-05-18T13:44:46.300Z,99.90
2018-05-18T13:47:15.523Z,99.90
2018-05-18T13:49:44.800Z,99.90
2018-05-18T13:52:15.923Z,99.90
2018-05-18T13:54:47.794Z,99.90
2018-05-18T13:57:17.157Z,99.90
2018-05-18T13:59:46.400Z,99.90
2018-05-18T14:02:15.712Z,99.90
2018-05-18T14:04:49.031Z,99.90
2018-05-18T14:07:19.303Z,99.90
2018-05-18T14:09:48.713Z,99.90
2018-05-18T14:12:20.138Z,99.90
2018-05-18T14:14:50.049Z,99.90
2018-05-18T14:17:20.083Z,99.90
2018-05-18T14:19:49.841Z,99.90
2018-05-18T14:22:19.134Z,99.90
2018-05-18T14:24:51.576Z,99.90
2018-05-18T14:27:21.765Z,99.90
2018-05-18T14:29:51.917Z,99.90
2018-05-18T14:32:22.999Z,99.90
2018-05-18T14:34:52.095Z,99.90
2018-05-18T14:37:21.276Z,99.00
2018-05-18T14:39:50.706Z,95.50
2018-05-18T14:42:20.566Z,93.60
2018-05-18T14:45:02.313Z,90.90
2018-05-18T14:47:32.278Z,89.00
2018-05-18T14:50:03.423Z,86.30
2018-05-18T14:52:33.660Z,85.60
2018-05-18T14:55:04.284Z,79.00
2018-05-18T14:57:34.320Z,79.70
2018-05-18T15:00:03.464Z,79.50
2018-05-18T15:02:33.071Z,74.90
2018-05-18T15:05:02.853Z,77.50
2018-05-18T15:07:34.339Z,75.90
2018-05-18T15:10:03.654Z,76.10
2018-05-18T15:12:35.562Z,77.50
2018-05-18T15:15:13.542Z,79.70
2018-05-18T15:17:44.543Z,80.40
2018-05-18T15:20:13.768Z,75.90
2018-05-18T15:22:43.112Z,76.50
2018-05-18T15:25:13.598Z,75.80
2018-05-18T15:27:44.120Z,75.80
2018-05-18T15:30:13.256Z,76.10
2018-05-18T15:32:43.561Z,71.40
2018-05-18T15:35:14.327Z,72.10
2018-05-18T15:37:45.330Z,69.10
2018-05-18T15:40:15.221Z,69.50
2018-05-18T15:42:48.330Z,70.00
2018-05-18T15:45:18.384Z,67.20
2018-05-18T15:47:50.408Z,69.00
2018-05-18T15:50:19.598Z,70.80
2018-05-18T15:52:50.401Z,68.30
2018-05-18T15:55:20.624Z,71.60
2018-05-18T15:57:51.475Z,67.80
2018-05-18T16:00:21.242Z,66.10
2018-05-18T16:02:51.405Z,59.50
2018-05-18T16:05:59.590Z,59.70
2018-05-18T16:08:43.501Z,58.50
2018-05-18T16:11:14.779Z,60.00
2018-05-18T16:13:47.748Z,56.20
2018-05-18T16:16:18.776Z,54.50
2018-05-18T16:18:48.974Z,53.80
2018-05-18T16:21:18.983Z,50.10
2018-05-18T16:23:50.916Z,51.30
2018-05-18T16:26:20.453Z,51.20
2018-05-18T16:28:50.422Z,50.80
2018-05-18T16:31:20.335Z,50.50
2018-05-18T16:33:50.273Z,48.70
2018-05-18T16:36:19.395Z,50.60
2018-05-18T16:38:51.102Z,48.90
2018-05-18T16:41:20.955Z,48.90
2018-05-18T16:43:52.788Z,49.90
2018-05-18T16:46:27.486Z,48.80
2018-05-18T16:49:01.324Z,49.90
2018-05-18T16:51:32.287Z,47.80
2018-05-18T16:54:01.867Z,48.30
2018-05-18T16:56:31.119Z,47.60
2018-05-18T16:59:01.100Z,48.40
2018-05-18T17:01:30.335Z,48.90
2018-05-18T17:03:59.618Z,52.30
2018-05-18T17:06:32.834Z,48.80
2018-05-18T17:09:03.197Z,47.00
2018-05-18T17:11:34.863Z,46.30
2018-05-18T17:14:07.587Z,46.20
2018-05-18T17:16:37.818Z,47.40
2018-05-18T17:19:12.824Z,48.10
2018-05-18T17:21:47.709Z,47.90
2018-05-18T17:24:17.079Z,48.60
2018-05-18T17:26:46.382Z,50.70
2018-05-18T17:29:19.112Z,52.10
2018-05-18T17:31:49.203Z,52.20
2018-05-18T17:34:18.696Z,50.90
2018-05-18T17:36:53.388Z,48.60
2018-05-18T17:39:23.621Z,47.50
2018-05-18T17:41:55.742Z,48.40
2018-05-18T17:44:26.976Z,48.60
2018-05-18T17:52:50.978Z,53.70
2018-05-18T17:55:26.590Z,53.00
2018-05-18T17:57:57.373Z,54.10
2018-05-18T18:00:33.014Z,56.60
2018-05-18T18:03:10.582Z,56.70
2018-05-18T18:05:40.359Z,53.60
2018-05-18T18:08:15.048Z,56.80
2018-05-18T18:18:16.492Z,54.50
2018-05-18T18:38:33.397Z,51.10
2018-05-18T18:44:17.100Z,52.50
2018-05-18T18:46:49.275Z,52.20
2018-05-18T18:49:23.354Z,55.90
2018-05-18T18:51:58.831Z,58.40
2018-05-18T18:57:45.758Z,60.00
2018-05-18T19:00:24.069Z,63.00
2018-05-18T19:10:22.308Z,73.30
2018-05-18T19:26:55.423Z,68.10
2018-05-18T19:29:26.838Z,65.00
2018-05-18T19:34:33.335Z,59.00
2018-05-18T19:37:05.856Z,57.40
2018-05-18T19:42:11.817Z,59.60
2018-05-18T19:58:25.336Z,57.40
2018-05-18T20:00:56.747Z,56.40
2018-05-18T20:03:27.418Z,53.90
2018-05-18T20:06:24.527Z,54.00
2018-05-18T20:08:54.713Z,54.00
2018-05-18T20:11:28.323Z,55.30
2018-05-18T20:14:02.269Z,54.30
2018-05-18T20:39:41.002Z,59.90
2018-05-18T20:48:22.855Z,63.80
2018-05-18T20:54:33.571Z,76.00
2018-05-18T20:57:05.845Z,81.30
2018-05-18T20:59:57.830Z,83.70
2018-05-18T21:12:34.087Z,91.70
2018-05-18T21:15:06.484Z,91.90
2018-05-18T21:17:38.828Z,93.10
2018-05-18T21:20:11.874Z,93.80
2018-05-18T21:22:42.047Z,95.50
2018-05-18T21:25:21.332Z,96.10
2018-05-18T21:28:00.609Z,97.50
2018-05-18T21:30:38.509Z,98.40
2018-05-18T21:33:16.623Z,99.90
2018-05-18T21:35:58.910Z,99.90
2018-05-18T21:41:44.229Z,99.90
2018-05-18T21:44:17.102Z,99.90
2018-05-18T21:46:53.369Z,99.90
2018-05-18T21:49:24.246Z,99.90
2018-05-18T22:05:05.485Z,99.90
2018-05-18T22:10:13.690Z,99.90
2018-05-18T22:12:55.151Z,99.90
2018-05-18T22:15:25.268Z,99.90
2018-05-18T22:18:05.010Z,99.90
2018-05-18T22:25:55.597Z,99.90
2018-05-18T22:31:19.096Z,99.90
2018-05-18T22:33:49.410Z,99.90
2018-05-18T22:36:21.716Z,99.90
2018-05-18T22:38:51.028Z,99.90
2018-05-18T22:41:21.319Z,99.90
2018-05-18T22:43:51.876Z,99.90
2018-05-18T22:46:23.943Z,99.90
2018-05-18T22:51:46.635Z,99.90
2018-05-18T22:54:16.993Z,99.90
2018-05-18T22:56:47.039Z,99.90
2018-05-18T22:59:19.622Z,99.90
2018-05-18T23:01:49.077Z,99.90
2018-05-18T23:04:18.496Z,99.90
2018-05-18T23:29:55.216Z,99.90
2018-05-18T23:32:24.600Z,99.90
2018-05-18T23:34:54.598Z,99.90
2018-05-18T23:37:24.677Z,99.90
2018-05-18T23:39:54.285Z,99.90
2018-05-18T23:42:27.327Z,99.90
2018-05-18T23:44:56.966Z,99.90
2018-05-18T23:50:24.907Z,99.90
2018-05-18T23:52:54.163Z,99.90
